Balkan, Minnesota
Current Conditions -  °F | °C
As of 5:53 AM on Monday 26 Jan 2015 (Local Time) from KHIB Reporting Station
Haze Haze  
Wind Chill: 14°   Ceiling: 600
Heat Index: 22°   Visibility: 4mi
Dew Point: 19°   Wind: 6mph
Humidity: 89%   Direction: 170°S
Pressure: 29.62"   Gusts: NA
Location:  47.5741°N, 92.8546°W
Report Text: KHIB 261153Z AUTO 17005KT 4SM BR OVC006 M06/M07 A2962 RMK AO2 FZRAB1055E23 SLP054 P0000 60003 70003 I1002 I6003 T10561072 11056 21072 56027
Loading
Personal Weather Stations






























Interactive Weather Map New forecast layout! Learn more

10-Day Weather Forecast

Advertisements
Track Severe Weather on mobile